Time;durP1;ratioP1;P1;durP2;ratioP2;P2;SDS_P1;SDS_P2;PMS_P1;PMS_P2;Temp;Humidity;BMP_temperature;BMP_pressure;BME280_temperature;BME280_humidity;BME280_pressure;Samples;Min_cycle;Max_cycle;Signal;HPM_P1;HPM_P2
2023/09/29 00:01:38;;;;;;;5.78;1.30;;;17.00;99.90;;;;;;4978021;28;20038;-74
2023/09/29 00:04:06;;;;;;;6.18;1.55;;;16.90;99.90;;;;;;4990281;28;20034;-75
2023/09/29 00:06:34;;;;;;;6.72;1.50;;;16.90;99.90;;;;;;4995404;28;20038;-75
2023/09/29 00:09:01;;;;;;;3.53;1.45;;;16.90;99.90;;;;;;4993536;28;20058;-74
2023/09/29 00:11:31;;;;;;;5.63;1.40;;;16.90;99.90;;;;;;5005883;28;20384;-75
2023/09/29 00:13:58;;;;;;;4.57;1.70;;;16.80;99.90;;;;;;4995465;28;20029;-76
2023/09/29 00:16:25;;;;;;;6.38;1.70;;;16.80;99.90;;;;;;4996949;28;20037;-76
2023/09/29 00:18:51;;;;;;;6.68;1.80;;;16.80;99.90;;;;;;4994655;28;20057;-76
2023/09/29 00:21:18;;;;;;;4.70;1.23;;;16.80;99.90;;;;;;5012517;28;20041;-74
2023/09/29 00:23:45;;;;;;;5.85;1.42;;;16.80;99.90;;;;;;4996920;28;20037;-75
2023/09/29 00:26:11;;;;;;;4.53;1.42;;;16.80;99.90;;;;;;4980849;28;20491;-75
2023/09/29 00:28:41;;;;;;;7.72;1.67;;;16.80;99.90;;;;;;4994801;28;20033;-75
2023/09/29 00:31:08;;;;;;;5.07;1.50;;;16.80;99.90;;;;;;4995316;28;20376;-74
2023/09/29 00:33:35;;;;;;;3.65;1.13;;;16.80;99.90;;;;;;4980848;28;20049;-75
2023/09/29 00:36:01;;;;;;;6.13;1.70;;;16.90;99.90;;;;;;4996048;28;20451;-74
2023/09/29 00:38:28;;;;;;;6.35;1.67;;;16.90;99.90;;;;;;4998338;28;20029;-75
2023/09/29 00:41:13;;;;;;;5.53;1.70;;;16.90;99.90;;;;;;4994225;28;20379;-74
2023/09/29 00:43:40;;;;;;;6.03;1.67;;;16.90;99.90;;;;;;4996898;28;20048;-74
2023/09/29 00:46:06;;;;;;;7.55;1.80;;;16.90;99.90;;;;;;4993938;28;20053;-74
2023/09/29 00:48:35;;;;;;;5.43;1.58;;;16.90;99.90;;;;;;4996091;28;20588;-75
2023/09/29 00:51:01;;;;;;;4.82;1.33;;;17.00;99.90;;;;;;4995224;28;20626;-75
2023/09/29 00:53:28;;;;;;;5.78;1.27;;;16.90;99.90;;;;;;5010139;28;20476;-75
2023/09/29 00:55:55;;;;;;;6.60;1.77;;;17.00;99.90;;;;;;4993144;28;20034;-75
2023/09/29 00:58:22;;;;;;;3.63;1.33;;;17.00;99.90;;;;;;4980093;28;20026;-74
2023/09/29 01:00:49;;;;;;;4.47;1.40;;;17.00;99.90;;;;;;4996013;28;20391;-74
2023/09/29 01:03:15;;;;;;;5.68;1.40;;;17.00;99.90;;;;;;4994674;28;20030;-75
2023/09/29 01:05:44;;;;;;;5.75;1.50;;;16.90;99.90;;;;;;4993518;28;20034;-74
2023/09/29 01:08:21;;;;;;;3.47;1.10;;;16.90;99.90;;;;;;4979106;28;20324;-75
2023/09/29 01:10:48;;;;;;;4.80;1.15;;;16.90;99.90;;;;;;5009607;28;20030;-75
2023/09/29 01:13:16;;;;;;;6.78;1.40;;;16.90;99.90;;;;;;4978249;28;20032;-75
2023/09/29 01:15:43;;;;;;;3.90;1.42;;;16.90;99.90;;;;;;4996944;28;20026;-75
2023/09/29 01:18:09;;;;;;;5.28;1.77;;;16.90;99.90;;;;;;4977894;28;20392;-74
2023/09/29 01:20:37;;;;;;;3.72;1.17;;;16.90;99.90;;;;;;4993868;28;20034;-75
2023/09/29 01:23:04;;;;;;;6.03;1.58;;;16.80;99.90;;;;;;4993599;28;20030;-75
2023/09/29 01:25:32;;;;;;;6.05;1.48;;;16.90;99.90;;;;;;4977953;28;20034;-79
2023/09/29 01:27:58;;;;;;;4.50;1.40;;;16.90;99.90;;;;;;4960468;28;20033;-76
2023/09/29 01:30:27;;;;;;;5.70;1.58;;;16.90;99.90;;;;;;4994631;28;20042;-76
2023/09/29 01:32:59;;;;;;;4.10;1.42;;;16.90;99.90;;;;;;4992832;28;20034;-75
2023/09/29 01:35:44;;;;;;;4.35;1.50;;;17.00;99.90;;;;;;5009760;28;20029;-75
2023/09/29 01:38:10;;;;;;;7.15;1.77;;;17.00;99.90;;;;;;4981398;28;20465;-74
2023/09/29 01:40:37;;;;;;;4.85;1.38;;;17.00;99.90;;;;;;4997934;28;20053;-74
2023/09/29 01:43:04;;;;;;;5.90;1.70;;;16.90;99.90;;;;;;4981854;28;20038;-75
2023/09/29 01:45:32;;;;;;;5.13;1.67;;;17.00;99.90;;;;;;4979740;28;20041;-76
2023/09/29 01:48:02;;;;;;;4.10;1.55;;;17.00;99.90;;;;;;4982199;28;20041;-75
2023/09/29 01:50:47;;;;;;;6.25;1.70;;;17.00;99.90;;;;;;4997435;28;20057;-77
2023/09/29 01:53:13;;;;;;;3.47;1.38;;;17.00;99.90;;;;;;4996940;28;20037;-77
2023/09/29 01:55:40;;;;;;;5.03;1.88;;;17.00;99.90;;;;;;4997597;28;20380;-75
2023/09/29 01:58:06;;;;;;;6.45;2.92;;;17.00;99.90;;;;;;4996906;28;20018;-75
2023/09/29 02:00:51;;;;;;;6.10;2.42;;;17.10;99.90;;;;;;4997270;28;20041;-75
2023/09/29 02:03:18;;;;;;;3.95;1.80;;;17.10;99.90;;;;;;4964819;28;20388;-75
2023/09/29 02:05:45;;;;;;;5.28;2.30;;;17.10;99.90;;;;;;4997072;28;20030;-82
2023/09/29 02:08:13;;;;;;;5.40;1.75;;;17.10;99.90;;;;;;4994158;28;20495;-74
2023/09/29 02:10:40;;;;;;;4.88;1.92;;;17.10;99.90;;;;;;5006934;28;20049;-74
2023/09/29 02:13:07;;;;;;;7.47;2.10;;;17.10;99.90;;;;;;5011929;28;20041;-75
2023/09/29 02:15:36;;;;;;;4.85;2.17;;;17.10;99.90;;;;;;4992610;28;20037;-74
2023/09/29 02:18:04;;;;;;;5.93;2.50;;;17.20;99.90;;;;;;5007388;28;20057;-74
2023/09/29 02:20:31;;;;;;;5.43;2.20;;;17.20;99.90;;;;;;4993355;28;20046;-74
2023/09/29 02:23:02;;;;;;;5.97;2.30;;;17.20;99.90;;;;;;4992989;28;20042;-74
2023/09/29 02:25:29;;;;;;;3.85;1.67;;;17.20;99.90;;;;;;5008228;28;20381;-74
2023/09/29 02:27:59;;;;;;;7.68;2.35;;;17.20;99.90;;;;;;4991528;28;20085;-75
2023/09/29 02:30:46;;;;;;;4.90;1.92;;;17.30;99.90;;;;;;4992772;28;20064;-74
2023/09/29 02:33:12;;;;;;;5.35;2.63;;;17.20;99.90;;;;;;4994348;28;20030;-74
2023/09/29 02:35:58;;;;;;;4.55;1.92;;;17.30;99.90;;;;;;5004391;28;20037;-74
2023/09/29 02:38:24;;;;;;;3.75;1.77;;;17.30;99.90;;;;;;4977479;28;20487;-75
2023/09/29 02:40:50;;;;;;;5.97;2.33;;;17.30;99.90;;;;;;4994780;28;20475;-75
2023/09/29 02:43:17;;;;;;;5.63;2.35;;;17.20;99.90;;;;;;4977086;28;20034;-74
2023/09/29 02:45:45;;;;;;;4.57;2.35;;;17.20;99.90;;;;;;4977842;28;20046;-75
2023/09/29 02:48:30;;;;;;;4.25;2.33;;;17.20;99.90;;;;;;4992022;28;20460;-74
2023/09/29 02:50:57;;;;;;;2.92;2.17;;;17.20;99.90;;;;;;4993187;28;20049;-74
2023/09/29 02:53:23;;;;;;;6.53;2.20;;;17.20;99.90;;;;;;4994247;28;20365;-74
2023/09/29 02:55:50;;;;;;;4.50;2.05;;;17.20;99.90;;;;;;4975770;28;20507;-74
2023/09/29 02:58:17;;;;;;;4.85;2.15;;;17.10;99.90;;;;;;4994267;28;20030;-75
2023/09/29 03:00:44;;;;;;;5.60;2.30;;;17.10;99.90;;;;;;4989319;28;20038;-75
2023/09/29 03:03:10;;;;;;;4.60;1.75;;;17.10;99.90;;;;;;5009244;28;20041;-75
2023/09/29 03:05:39;;;;;;;5.03;2.10;;;17.00;99.90;;;;;;4975128;28;20677;-75
2023/09/29 03:08:07;;;;;;;4.38;2.08;;;17.00;99.90;;;;;;5009141;28;20030;-75
2023/09/29 03:10:34;;;;;;;3.75;2.15;;;16.90;99.90;;;;;;5007124;28;20026;-75
2023/09/29 03:13:03;;;;;;;5.05;2.30;;;16.90;99.90;;;;;;4976323;28;20034;-75
2023/09/29 03:15:30;;;;;;;4.15;2.03;;;16.80;99.90;;;;;;5009302;28;20030;-75
2023/09/29 03:17:56;;;;;;;4.22;2.25;;;16.80;99.90;;;;;;4993615;28;20033;-75
2023/09/29 03:20:23;;;;;;;3.75;1.98;;;16.80;99.90;;;;;;4976948;28;20042;-75
2023/09/29 03:22:50;;;;;;;4.10;2.10;;;16.80;99.90;;;;;;4993232;28;20029;-75
2023/09/29 03:25:16;;;;;;;5.38;2.08;;;16.80;99.90;;;;;;4993567;28;20089;-75
2023/09/29 03:28:04;;;;;;;3.42;2.13;;;16.80;99.90;;;;;;4992756;28;20353;-75
2023/09/29 03:30:31;;;;;;;5.35;1.77;;;16.80;99.90;;;;;;4993966;28;20487;-75
2023/09/29 03:32:58;;;;;;;6.82;2.75;;;16.90;99.90;;;;;;4976214;28;20042;-75
2023/09/29 03:35:24;;;;;;;5.53;2.05;;;16.90;99.90;;;;;;4977030;28;21952;-75
2023/09/29 03:37:50;;;;;;;7.43;2.55;;;16.90;99.90;;;;;;4975721;28;20034;-74
2023/09/29 03:40:18;;;;;;;4.90;2.22;;;17.00;99.90;;;;;;4989899;28;20030;-75
2023/09/29 03:42:44;;;;;;;4.35;2.28;;;17.00;99.90;;;;;;4974900;28;20045;-75
2023/09/29 03:45:11;;;;;;;5.85;2.33;;;17.00;99.90;;;;;;4992895;28;20053;-74
2023/09/29 03:47:38;;;;;;;2.80;1.80;;;17.00;99.90;;;;;;4994442;28;20026;-74
2023/09/29 03:50:12;;;;;;;4.70;1.70;;;16.90;99.90;;;;;;4991921;28;20042;-75
2023/09/29 03:52:39;;;;;;;4.05;1.48;;;17.00;99.90;;;;;;4996721;28;20048;-74
2023/09/29 03:55:06;;;;;;;4.90;2.17;;;16.90;99.90;;;;;;4993568;28;20037;-74
2023/09/29 03:57:34;;;;;;;3.45;1.80;;;16.90;99.90;;;;;;4993976;28;20033;-74
2023/09/29 04:00:01;;;;;;;3.53;1.88;;;17.00;99.90;;;;;;4993084;28;20021;-75
2023/09/29 04:02:27;;;;;;;2.97;1.65;;;17.00;99.90;;;;;;4977666;28;20033;-75
2023/09/29 04:04:53;;;;;;;4.30;2.10;;;17.00;99.90;;;;;;4993233;28;20040;-74
2023/09/29 04:07:20;;;;;;;5.07;1.67;;;17.00;99.90;;;;;;4990153;28;20434;-74
2023/09/29 04:09:46;;;;;;;4.50;1.90;;;17.00;99.90;;;;;;4976691;28;20499;-74
2023/09/29 04:12:13;;;;;;;4.07;1.73;;;17.00;99.90;;;;;;4994483;28;20457;-75
2023/09/29 04:14:40;;;;;;;3.70;1.33;;;17.00;99.90;;;;;;4992440;28;20048;-75
2023/09/29 04:17:07;;;;;;;2.88;1.58;;;17.00;99.90;;;;;;4990410;28;20037;-75
2023/09/29 04:19:35;;;;;;;3.58;1.75;;;17.00;99.90;;;;;;4977725;28;20030;-74
2023/09/29 04:22:01;;;;;;;3.50;1.70;;;17.10;99.90;;;;;;4993863;28;20044;-74
2023/09/29 04:24:28;;;;;;;3.08;1.88;;;17.10;99.90;;;;;;4992039;28;20029;-75
2023/09/29 04:26:54;;;;;;;3.33;1.67;;;17.10;99.90;;;;;;4976733;28;20400;-75
2023/09/29 04:29:21;;;;;;;2.70;1.35;;;17.10;99.90;;;;;;5007231;28;20033;-75
2023/09/29 04:31:47;;;;;;;2.60;1.30;;;17.10;99.90;;;;;;4994525;28;20336;-75
2023/09/29 04:34:13;;;;;;;3.70;1.50;;;17.10;99.90;;;;;;4993465;28;20246;-75
2023/09/29 04:36:41;;;;;;;5.30;1.70;;;17.10;99.90;;;;;;4981417;28;20037;-74
2023/09/29 04:39:08;;;;;;;2.72;1.48;;;17.10;99.90;;;;;;4976932;28;20033;-74
2023/09/29 04:41:35;;;;;;;3.97;1.70;;;17.10;99.90;;;;;;4993107;28;20042;-75
2023/09/29 04:44:02;;;;;;;2.80;1.23;;;17.10;99.90;;;;;;4962278;28;20472;-74
2023/09/29 04:46:29;;;;;;;3.35;1.50;;;17.10;99.90;;;;;;5010297;28;20038;-75
2023/09/29 04:48:56;;;;;;;3.08;1.25;;;17.10;99.90;;;;;;4979823;28;20033;-75
2023/09/29 04:51:23;;;;;;;4.25;1.52;;;17.10;99.90;;;;;;4994994;28;20029;-74
2023/09/29 04:53:49;;;;;;;3.50;1.08;;;17.10;99.90;;;;;;4996428;28;20038;-75
2023/09/29 04:56:16;;;;;;;3.72;2.20;;;17.10;99.90;;;;;;4979467;28;20037;-75
2023/09/29 04:58:42;;;;;;;2.72;1.05;;;17.10;99.90;;;;;;4996365;28;20034;-75
2023/09/29 05:01:17;;;;;;;3.15;1.60;;;17.10;99.90;;;;;;4995107;28;20041;-73
2023/09/29 05:03:44;;;;;;;2.65;1.13;;;17.10;99.90;;;;;;4994882;28;20045;-75
2023/09/29 05:06:10;;;;;;;4.07;1.48;;;17.10;99.90;;;;;;4992425;28;20034;-75
2023/09/29 05:08:36;;;;;;;2.88;1.45;;;17.10;99.90;;;;;;4980651;28;20149;-75
2023/09/29 05:11:03;;;;;;;4.47;1.20;;;17.10;99.90;;;;;;4996607;28;20034;-76
2023/09/29 05:13:32;;;;;;;2.90;1.40;;;17.10;99.90;;;;;;4998915;28;20026;-76
2023/09/29 05:16:17;;;;;;;3.42;1.27;;;17.20;99.90;;;;;;4997277;28;20531;-75
2023/09/29 05:18:44;;;;;;;1.77;1.05;;;17.20;99.90;;;;;;4981361;28;20378;-76
2023/09/29 05:21:11;;;;;;;2.95;1.45;;;17.20;99.90;;;;;;5012268;28;20049;-76
2023/09/29 05:23:38;;;;;;;2.13;1.10;;;17.20;99.90;;;;;;5013371;28;20026;-75
2023/09/29 05:26:07;;;;;;;3.83;1.20;;;17.30;99.90;;;;;;4997377;28;20662;-75
2023/09/29 05:28:34;;;;;;;2.88;1.08;;;17.30;99.90;;;;;;4998986;28;20041;-76
2023/09/29 05:31:03;;;;;;;3.55;1.27;;;17.30;99.90;;;;;;4965357;28;20077;-76
2023/09/29 05:33:30;;;;;;;4.57;1.77;;;17.30;99.90;;;;;;4980523;28;20038;-75
2023/09/29 05:35:58;;;;;;;3.03;1.27;;;17.30;99.90;;;;;;5011777;28;20045;-76
2023/09/29 05:38:24;;;;;;;2.55;1.35;;;17.30;99.90;;;;;;4994782;28;20036;-76
2023/09/29 05:40:51;;;;;;;1.95;1.02;;;17.30;99.90;;;;;;4997676;28;20026;-76
2023/09/29 05:43:18;;;;;;;1.73;0.88;;;17.40;99.90;;;;;;5014792;28;20030;-76
2023/09/29 05:45:45;;;;;;;3.25;0.90;;;17.40;99.90;;;;;;4980044;28;20048;-73
2023/09/29 05:48:11;;;;;;;1.80;1.17;;;17.40;99.90;;;;;;4997138;28;20041;-73
2023/09/29 05:50:38;;;;;;;2.28;0.90;;;17.40;99.90;;;;;;4999054;28;20532;-72
2023/09/29 05:53:05;;;;;;;3.45;0.95;;;17.40;99.90;;;;;;5000602;28;20058;-73
2023/09/29 05:55:32;;;;;;;3.50;1.13;;;17.40;99.90;;;;;;4994014;28;20041;-74
2023/09/29 05:57:58;;;;;;;2.50;0.98;;;17.50;99.90;;;;;;5011328;28;20490;-74
2023/09/29 06:00:25;;;;;;;2.53;1.20;;;17.50;99.90;;;;;;4996949;28;20512;-74
2023/09/29 06:02:52;;;;;;;5.28;3.28;;;17.50;99.90;;;;;;4997180;28;20050;-75
2023/09/29 06:05:19;;;;;;;6.18;2.40;;;17.60;99.90;;;;;;4979684;28;20029;-76
2023/09/29 06:07:45;;;;;;;3.70;2.80;;;17.60;99.90;;;;;;4998614;28;20029;-79
2023/09/29 06:10:12;;;;;;;3.17;2.08;;;17.60;99.90;;;;;;4982569;28;20033;-78
2023/09/29 06:12:38;;;;;;;4.32;2.30;;;17.70;99.90;;;;;;4982472;28;20495;-77
2023/09/29 06:15:24;;;;;;;2.78;1.92;;;17.70;99.90;;;;;;4993761;28;20038;-78
2023/09/29 06:17:51;;;;;;;4.75;2.03;;;17.70;99.90;;;;;;4998495;28;20045;-77
2023/09/29 06:20:18;;;;;;;4.13;2.75;;;17.80;99.90;;;;;;4995658;28;20042;-76
2023/09/29 06:22:45;;;;;;;3.60;2.28;;;17.90;99.90;;;;;;5013538;28;20045;-77
2023/09/29 06:25:12;;;;;;;3.40;1.77;;;18.00;99.90;;;;;;4997504;28;20037;-77
2023/09/29 06:27:38;;;;;;;5.22;2.80;;;18.10;99.90;;;;;;4995178;28;20776;-76
2023/09/29 06:30:06;;;;;;;3.03;1.75;;;18.20;99.90;;;;;;4961594;28;20507;-76
2023/09/29 06:32:33;;;;;;;3.50;1.73;;;18.20;99.90;;;;;;4997322;28;20045;-76
2023/09/29 06:35:01;;;;;;;2.67;1.38;;;18.30;99.90;;;;;;4994369;28;20489;-76
2023/09/29 06:37:27;;;;;;;2.55;1.30;;;18.40;99.90;;;;;;4995041;28;20040;-77
2023/09/29 06:39:54;;;;;;;6.03;3.38;;;18.50;99.90;;;;;;4994158;28;20030;-76
2023/09/29 06:42:20;;;;;;;7.97;3.97;;;18.50;99.90;;;;;;4999879;28;20485;-76
2023/09/29 06:44:47;;;;;;;3.30;2.33;;;18.60;99.90;;;;;;4996947;28;20042;-77
2023/09/29 06:47:13;;;;;;;2.70;1.70;;;18.60;99.90;;;;;;4992443;28;20038;-75
2023/09/29 06:49:40;;;;;;;3.88;2.38;;;18.60;99.90;;;;;;4996718;28;20033;-75
2023/09/29 06:52:06;;;;;;;3.83;1.70;;;18.60;99.90;;;;;;5000161;28;20029;-75
2023/09/29 06:54:33;;;;;;;2.20;1.33;;;18.60;99.90;;;;;;4995385;28;20026;-74
2023/09/29 06:56:59;;;;;;;5.18;2.35;;;18.60;99.90;;;;;;4995286;28;20045;-74
2023/09/29 06:59:25;;;;;;;3.20;1.50;;;18.60;99.90;;;;;;4978138;28;20038;-75
2023/09/29 07:01:53;;;;;;;1.75;1.00;;;18.60;99.90;;;;;;4996439;28;20038;-76
2023/09/29 07:04:20;;;;;;;2.88;0.93;;;18.70;99.90;;;;;;4994426;28;20042;-77
2023/09/29 07:06:46;;;;;;;2.67;0.80;;;18.70;99.90;;;;;;4997042;28;20034;-76
2023/09/29 07:09:13;;;;;;;1.90;0.90;;;18.80;99.90;;;;;;4995233;28;20018;-76
2023/09/29 07:11:41;;;;;;;1.48;0.63;;;18.80;99.90;;;;;;4993400;28;20030;-75
2023/09/29 07:14:08;;;;;;;2.50;0.90;;;18.90;99.90;;;;;;4996056;28;20025;-74
2023/09/29 07:16:34;;;;;;;1.40;0.82;;;18.90;99.90;;;;;;4995885;28;20034;-75
2023/09/29 07:19:01;;;;;;;2.03;0.80;;;19.00;99.90;;;;;;4974033;28;20504;-75
2023/09/29 07:21:28;;;;;;;1.98;0.82;;;19.00;99.90;;;;;;5011487;28;20044;-74
2023/09/29 07:23:56;;;;;;;1.58;0.70;;;19.10;99.90;;;;;;4964189;28;20413;-75
2023/09/29 07:26:22;;;;;;;1.73;0.90;;;19.20;99.90;;;;;;4981279;28;20033;-75
2023/09/29 07:28:49;;;;;;;3.50;1.05;;;19.30;99.90;;;;;;4979325;28;20040;-75
2023/09/29 07:31:15;;;;;;;2.92;0.70;;;19.40;99.90;;;;;;4996619;28;20034;-75
2023/09/29 07:33:41;;;;;;;3.05;1.05;;;19.50;99.90;;;;;;4996310;28;20396;-74
2023/09/29 07:36:08;;;;;;;1.58;0.80;;;19.60;99.90;;;;;;4993828;28;20034;-75
2023/09/29 07:38:34;;;;;;;2.92;1.00;;;19.70;99.90;;;;;;4994694;28;20022;-74
2023/09/29 07:41:04;;;;;;;3.33;0.90;;;19.80;99.90;;;;;;4996220;28;20134;-75
2023/09/29 07:43:31;;;;;;;1.60;1.00;;;19.90;99.90;;;;;;4996713;28;20049;-73
2023/09/29 07:45:57;;;;;;;1.55;0.90;;;20.00;99.90;;;;;;4995142;28;20042;-74
2023/09/29 07:48:24;;;;;;;2.33;0.90;;;20.10;99.90;;;;;;4993431;28;20057;-74
2023/09/29 07:50:50;;;;;;;1.83;0.80;;;20.10;99.90;;;;;;4977844;28;20049;-75
2023/09/29 07:53:17;;;;;;;1.95;0.77;;;20.10;99.90;;;;;;4994704;28;20026;-74
2023/09/29 07:55:43;;;;;;;4.85;1.15;;;20.10;99.90;;;;;;4984843;28;20029;-74
2023/09/29 07:58:10;;;;;;;2.45;1.25;;;20.10;99.90;;;;;;4978499;28;20033;-74
2023/09/29 08:00:36;;;;;;;2.35;1.25;;;20.10;99.90;;;;;;4993505;28;20038;-74
2023/09/29 08:03:03;;;;;;;4.78;2.63;;;20.20;99.90;;;;;;4977276;28;20034;-74
2023/09/29 08:05:29;;;;;;;6.80;3.28;;;20.20;99.90;;;;;;4992412;28;20050;-74
2023/09/29 08:07:56;;;;;;;3.72;1.80;;;20.30;99.90;;;;;;4992982;28;20034;-74
2023/09/29 08:10:22;;;;;;;3.05;1.15;;;20.40;99.90;;;;;;5010839;28;20053;-74
2023/09/29 08:12:48;;;;;;;2.13;0.70;;;20.50;99.90;;;;;;4993746;28;20041;-74
2023/09/29 08:15:15;;;;;;;2.40;0.80;;;20.60;99.90;;;;;;4960774;28;20034;-74
2023/09/29 08:17:43;;;;;;;4.28;1.65;;;20.70;99.90;;;;;;4980922;28;20656;-74
2023/09/29 08:20:10;;;;;;;2.20;0.73;;;20.70;99.90;;;;;;4996804;28;20061;-74
2023/09/29 08:22:37;;;;;;;2.08;0.90;;;20.80;99.90;;;;;;4963648;28;20350;-74
2023/09/29 08:25:07;;;;;;;2.33;0.90;;;20.90;99.90;;;;;;4962297;28;20669;-74
2023/09/29 08:27:35;;;;;;;1.85;0.65;;;21.00;99.90;;;;;;4995276;28;20416;-74
2023/09/29 08:30:04;;;;;;;2.33;0.90;;;21.00;99.90;;;;;;4977077;28;20034;-74
2023/09/29 08:32:31;;;;;;;2.70;0.80;;;21.00;99.90;;;;;;4986311;28;20034;-74
2023/09/29 08:34:58;;;;;;;2.22;0.73;;;21.10;99.90;;;;;;4995449;28;20041;-74
2023/09/29 08:37:24;;;;;;;1.60;0.60;;;21.20;99.90;;;;;;4994054;28;20657;-75
2023/09/29 08:39:51;;;;;;;1.58;0.70;;;21.30;99.90;;;;;;4979472;28;20044;-74
2023/09/29 08:42:29;;;;;;;1.73;0.88;;;21.40;99.90;;;;;;4964770;28;21090;-74
2023/09/29 08:45:00;;;;;;;3.17;1.05;;;21.50;99.90;;;;;;4996257;28;20045;-74
2023/09/29 08:47:33;;;;;;;6.05;4.38;;;21.60;99.90;;;;;;4998342;28;20049;-75
2023/09/29 08:49:59;;;;;;;5.60;4.32;;;21.80;99.90;;;;;;4967587;28;20388;-74
2023/09/29 08:52:28;;;;;;;6.32;2.28;;;21.90;99.90;;;;;;4999282;28;20507;-74
2023/09/29 08:54:56;;;;;;;4.53;1.33;;;22.00;99.90;;;;;;4981247;28;20034;-75
2023/09/29 08:57:25;;;;;;;2.75;1.00;;;22.10;99.90;;;;;;4982486;28;20370;-74
2023/09/29 08:59:53;;;;;;;3.25;1.05;;;22.30;99.90;;;;;;4999264;28;20054;-75
2023/09/29 09:02:20;;;;;;;3.45;0.90;;;22.30;99.90;;;;;;4998679;28;20033;-75
2023/09/29 09:04:47;;;;;;;3.25;0.90;;;22.40;99.90;;;;;;5000145;28;20252;-75
2023/09/29 09:07:19;;;;;;;2.53;1.02;;;22.50;99.90;;;;;;5000413;28;20041;-75
2023/09/29 09:09:48;;;;;;;2.65;0.80;;;22.60;99.90;;;;;;5000208;28;20433;-75
2023/09/29 09:12:14;;;;;;;1.48;0.70;;;22.60;99.90;;;;;;5001361;28;20036;-75
2023/09/29 09:14:42;;;;;;;2.83;1.05;;;22.70;99.90;;;;;;5014644;28;20033;-75
2023/09/29 09:17:10;;;;;;;1.80;0.90;;;22.80;99.90;;;;;;4997340;28;20034;-75
2023/09/29 09:19:45;;;;;;;3.05;1.10;;;22.90;99.90;;;;;;4996935;28;20050;-75
2023/09/29 09:22:15;;;;;;;3.05;0.90;;;23.00;99.90;;;;;;4999596;28;20385;-75
2023/09/29 09:24:41;;;;;;;1.63;0.70;;;23.10;99.90;;;;;;4994078;28;20073;-75
2023/09/29 09:27:08;;;;;;;2.92;1.08;;;23.20;99.90;;;;;;4998089;28;20041;-75
2023/09/29 09:29:44;;;;;;;3.58;1.30;;;23.30;99.90;;;;;;4983252;28;20389;-77
2023/09/29 09:32:11;;;;;;;3.88;1.50;;;23.40;99.90;;;;;;5012576;28;20049;-76
2023/09/29 09:34:38;;;;;;;3.13;1.02;;;23.40;99.90;;;;;;4982428;28;20046;-77
2023/09/29 09:37:09;;;;;;;3.97;1.17;;;23.30;99.90;;;;;;4998706;28;20447;-75
2023/09/29 09:39:37;;;;;;;2.72;1.30;;;23.20;99.90;;;;;;4999107;28;20034;-77
2023/09/29 09:42:05;;;;;;;2.75;1.13;;;23.00;99.90;;;;;;4998601;28;20045;-76
2023/09/29 09:44:38;;;;;;;2.55;0.98;;;22.80;99.90;;;;;;4984671;28;20038;-75
2023/09/29 09:47:11;;;;;;;4.95;1.00;;;22.80;99.90;;;;;;4967305;28;20037;-75
2023/09/29 09:49:50;;;;;;;5.25;1.17;;;22.80;99.90;;;;;;4998911;28;20034;-76
2023/09/29 09:52:26;;;;;;;2.58;1.25;;;23.00;99.90;;;;;;4981954;28;20045;-76
2023/09/29 09:54:58;;;;;;;3.55;0.85;;;23.30;99.90;;;;;;5010814;28;20042;-76
2023/09/29 09:57:34;;;;;;;2.95;1.45;;;23.50;99.90;;;;;;4996936;28;20056;-76
2023/09/29 10:00:07;;;;;;;3.40;1.00;;;23.60;99.90;;;;;;5015553;28;20037;-76
2023/09/29 10:02:39;;;;;;;3.75;1.10;;;23.40;99.90;;;;;;4983440;28;20037;-76
2023/09/29 10:05:16;;;;;;;4.22;1.42;;;23.30;99.90;;;;;;4998315;28;20040;-76
2023/09/29 10:07:46;;;;;;;5.32;1.58;;;23.20;99.90;;;;;;4966667;28;20041;-86
2023/09/29 10:10:33;;;;;;;8.35;1.35;;;23.30;99.90;;;;;;4981907;28;20045;-76
2023/09/29 10:13:03;;;;;;;3.45;1.20;;;23.50;99.90;;;;;;4997410;28;20038;-75
2023/09/29 10:15:29;;;;;;;3.17;1.10;;;23.70;99.90;;;;;;4982129;28;20026;-75
2023/09/29 10:17:58;;;;;;;3.42;1.20;;;23.90;99.90;;;;;;4982774;28;20057;-77
2023/09/29 10:20:28;;;;;;;5.43;1.60;;;24.10;99.90;;;;;;4996659;28;20037;-77
2023/09/29 10:23:08;;;;;;;5.10;1.50;;;24.20;99.90;;;;;;4996315;28;20037;-75
2023/09/29 10:25:37;;;;;;;4.38;1.52;;;24.10;99.90;;;;;;5012179;28;20026;-76
2023/09/29 10:28:06;;;;;;;3.00;1.08;;;23.90;99.90;;;;;;4999719;28;20030;-77
2023/09/29 10:30:34;;;;;;;3.33;1.20;;;23.80;99.90;;;;;;4997101;28;20065;-77
2023/09/29 10:33:13;;;;;;;3.72;1.30;;;23.60;99.90;;;;;;4998161;28;20991;-78
2023/09/29 10:35:45;;;;;;;3.65;1.23;;;23.50;99.90;;;;;;4995187;28;20041;-78
2023/09/29 10:38:25;;;;;;;3.00;1.20;;;23.30;99.90;;;;;;4999179;28;20846;-76
2023/09/29 10:40:55;;;;;;;3.17;1.30;;;23.20;99.90;;;;;;4981631;28;20037;-77
2023/09/29 10:43:23;;;;;;;4.97;1.27;;;23.10;99.90;;;;;;4996019;28;20057;-75
2023/09/29 10:45:51;;;;;;;3.17;1.05;;;23.10;99.90;;;;;;4997311;28;20062;-77
2023/09/29 10:48:22;;;;;;;3.10;2.03;;;23.20;99.90;;;;;;4981581;28;20053;-76
2023/09/29 10:50:49;;;;;;;4.05;1.38;;;23.20;99.90;;;;;;4996132;28;20038;-76
2023/09/29 10:53:17;;;;;;;3.20;0.90;;;23.20;99.90;;;;;;4995523;28;20122;-76
2023/09/29 10:55:47;;;;;;;3.30;0.77;;;23.10;99.90;;;;;;4963100;28;20037;-77
2023/09/29 10:58:17;;;;;;;2.67;0.90;;;23.10;99.90;;;;;;4981943;28;20034;-76
2023/09/29 11:00:52;;;;;;;2.83;1.00;;;23.30;99.90;;;;;;5012590;28;20032;-82
2023/09/29 11:03:27;;;;;;;3.75;0.70;;;23.40;99.90;;;;;;4996203;28;20033;-76
2023/09/29 11:05:55;;;;;;;2.65;0.90;;;23.30;99.90;;;;;;4995732;28;20579;-78
2023/09/29 11:08:33;;;;;;;2.58;1.00;;;23.20;99.90;;;;;;4996012;28;20026;-78
2023/09/29 11:11:02;;;;;;;3.20;1.10;;;23.20;99.90;;;;;;5010707;28;20535;-76
2023/09/29 11:13:29;;;;;;;1.92;0.73;;;23.00;99.90;;;;;;4981764;28;20041;-77
2023/09/29 11:15:58;;;;;;;1.85;0.70;;;22.90;99.90;;;;;;4995696;28;20363;-76
2023/09/29 11:18:34;;;;;;;2.55;1.10;;;22.70;99.90;;;;;;5012475;28;20489;-76
2023/09/29 11:21:05;;;;;;;4.35;1.23;;;22.60;99.90;;;;;;4979747;28;20029;-77
2023/09/29 11:23:44;;;;;;;2.28;1.42;;;22.50;99.90;;;;;;4995384;28;20034;-79
2023/09/29 11:26:11;;;;;;;2.95;0.93;;;22.40;99.90;;;;;;4994184;28;20053;-76
2023/09/29 11:28:48;;;;;;;2.25;0.90;;;22.40;99.90;;;;;;4977314;28;20033;-75
2023/09/29 11:31:15;;;;;;;3.65;1.17;;;22.40;99.90;;;;;;4996205;28;20026;-75
2023/09/29 11:33:44;;;;;;;2.75;0.77;;;22.30;99.90;;;;;;4993875;28;20034;-75
2023/09/29 11:36:16;;;;;;;3.22;0.77;;;22.30;99.90;;;;;;4994440;28;20041;-75
2023/09/29 11:38:42;;;;;;;3.13;0.90;;;22.40;99.90;;;;;;5012763;28;20125;-75
2023/09/29 11:41:08;;;;;;;2.97;1.13;;;22.50;99.90;;;;;;4995278;28;20026;-77
2023/09/29 11:43:36;;;;;;;2.15;1.00;;;22.30;99.90;;;;;;4994797;28;20527;-81
2023/09/29 11:46:03;;;;;;;2.58;1.00;;;22.00;99.90;;;;;;4996375;28;20493;-79
2023/09/29 11:48:30;;;;;;;3.63;0.93;;;21.80;99.90;;;;;;4994879;28;20500;-81
2023/09/29 11:50:56;;;;;;;3.38;1.10;;;21.50;99.90;;;;;;4994461;28;20032;-78
2023/09/29 11:53:23;;;;;;;3.22;1.00;;;21.50;99.90;;;;;;5010970;28;20968;-81
2023/09/29 11:55:49;;;;;;;3.67;1.35;;;21.50;99.90;;;;;;4963783;28;20362;-83
2023/09/29 11:58:16;;;;;;;2.63;1.10;;;21.50;99.90;;;;;;4996012;28;20038;-84
2023/09/29 12:00:43;;;;;;;3.20;1.27;;;21.50;99.90;;;;;;4995566;28;20378;-82
2023/09/29 12:03:11;;;;;;;1.92;0.82;;;21.60;99.90;;;;;;4989388;28;20042;-85
2023/09/29 12:05:37;;;;;;;2.00;0.90;;;21.60;99.90;;;;;;4993775;28;20516;-83
2023/09/29 12:08:04;;;;;;;1.83;1.08;;;21.70;99.90;;;;;;4994437;28;20030;-88
2023/09/29 12:10:31;;;;;;;3.10;0.93;;;21.70;99.90;;;;;;4964223;28;20068;-87
2023/09/29 12:12:58;;;;;;;2.45;1.00;;;21.60;99.90;;;;;;4980156;28;20034;-87
2023/09/29 12:15:25;;;;;;;3.22;0.90;;;21.50;99.90;;;;;;4980980;28;20042;-85
2023/09/29 12:17:53;;;;;;;4.97;1.77;;;21.40;99.90;;;;;;4975650;28;20045;-87
2023/09/29 12:20:21;;;;;;;2.72;0.85;;;21.30;99.90;;;;;;4996067;28;20477;-86
2023/09/29 12:22:48;;;;;;;1.45;0.73;;;21.20;99.90;;;;;;4993622;28;20056;-86
2023/09/29 12:25:15;;;;;;;2.35;1.00;;;21.20;99.90;;;;;;4995785;28;20069;-82
2023/09/29 12:27:43;;;;;;;2.10;0.95;;;21.30;99.90;;;;;;4999109;28;20034;-85
2023/09/29 12:30:12;;;;;;;2.88;1.10;;;21.30;99.90;;;;;;5000023;28;20034;-85
2023/09/29 12:32:40;;;;;;;2.35;1.10;;;21.30;99.90;;;;;;4998839;28;20026;-85
2023/09/29 12:35:08;;;;;;;2.38;1.00;;;21.30;99.90;;;;;;4980786;28;20381;-83
2023/09/29 12:37:34;;;;;;;2.40;0.82;;;21.20;99.90;;;;;;4981546;28;20265;-87
2023/09/29 12:40:01;;;;;;;2.85;1.25;;;21.10;99.90;;;;;;4998734;28;20037;-85
2023/09/29 12:42:27;;;;;;;2.20;0.82;;;21.10;99.90;;;;;;5009706;28;20523;-85
2023/09/29 12:44:54;;;;;;;2.20;0.60;;;21.10;99.90;;;;;;4996677;28;20037;-85
2023/09/29 12:47:20;;;;;;;1.58;0.50;;;21.10;99.90;;;;;;4996534;28;20520;-86
2023/09/29 12:49:47;;;;;;;1.35;0.57;;;21.20;99.90;;;;;;4976499;28;20053;-85
2023/09/29 12:52:15;;;;;;;1.30;0.40;;;21.20;99.90;;;;;;4996607;28;20034;-83
2023/09/29 12:54:42;;;;;;;1.65;0.70;;;21.20;99.90;;;;;;4996831;28;20046;-84